sensor_id;sensor_type;location;lat;lon;timestamp;P1;durP1;ratioP1;P2;durP2;ratioP2
72791;SDS011;60907;53.268;8.764;2023-02-08T00:01:40;26.70;;;11.50;;
72791;SDS011;60907;53.268;8.764;2023-02-08T00:04:05;20.95;;;10.32;;
72791;SDS011;60907;53.268;8.764;2023-02-08T00:06:31;28.23;;;11.13;;
72791;SDS011;60907;53.268;8.764;2023-02-08T00:08:56;25.83;;;11.50;;
72791;SDS011;60907;53.268;8.764;2023-02-08T00:11:21;27.10;;;11.07;;
72791;SDS011;60907;53.268;8.764;2023-02-08T00:13:47;32.42;;;12.20;;
72791;SDS011;60907;53.268;8.764;2023-02-08T00:16:13;32.90;;;12.85;;
72791;SDS011;60907;53.268;8.764;2023-02-08T00:18:39;30.80;;;11.73;;
72791;SDS011;60907;53.268;8.764;2023-02-08T00:21:08;26.17;;;10.90;;
72791;SDS011;60907;53.268;8.764;2023-02-08T00:23:35;30.75;;;12.02;;
72791;SDS011;60907;53.268;8.764;2023-02-08T00:26:00;33.70;;;12.80;;
72791;SDS011;60907;53.268;8.764;2023-02-08T00:28:26;35.40;;;13.75;;
72791;SDS011;60907;53.268;8.764;2023-02-08T00:30:51;26.45;;;11.20;;
72791;SDS011;60907;53.268;8.764;2023-02-08T00:33:17;24.15;;;10.82;;
72791;SDS011;60907;53.268;8.764;2023-02-08T00:35:42;23.83;;;9.95;;
72791;SDS011;60907;53.268;8.764;2023-02-08T00:38:08;21.58;;;10.40;;
72791;SDS011;60907;53.268;8.764;2023-02-08T00:40:33;24.83;;;10.25;;
72791;SDS011;60907;53.268;8.764;2023-02-08T00:42:59;22.23;;;8.98;;
72791;SDS011;60907;53.268;8.764;2023-02-08T00:45:24;21.50;;;9.93;;
72791;SDS011;60907;53.268;8.764;2023-02-08T00:47:49;23.65;;;10.52;;
72791;SDS011;60907;53.268;8.764;2023-02-08T00:50:15;27.50;;;10.90;;
72791;SDS011;60907;53.268;8.764;2023-02-08T00:52:40;21.30;;;10.10;;
72791;SDS011;60907;53.268;8.764;2023-02-08T00:55:06;22.95;;;9.75;;
72791;SDS011;60907;53.268;8.764;2023-02-08T00:57:32;28.95;;;11.20;;
72791;SDS011;60907;53.268;8.764;2023-02-08T00:59:58;26.45;;;9.90;;
72791;SDS011;60907;53.268;8.764;2023-02-08T01:02:24;27.98;;;10.68;;
72791;SDS011;60907;53.268;8.764;2023-02-08T01:04:49;20.80;;;9.18;;
72791;SDS011;60907;53.268;8.764;2023-02-08T01:07:14;20.50;;;9.50;;
72791;SDS011;60907;53.268;8.764;2023-02-08T01:09:40;26.52;;;10.05;;
72791;SDS011;60907;53.268;8.764;2023-02-08T01:12:05;18.75;;;8.95;;
72791;SDS011;60907;53.268;8.764;2023-02-08T01:14:31;22.00;;;9.48;;
72791;SDS011;60907;53.268;8.764;2023-02-08T01:16:56;25.00;;;9.80;;
72791;SDS011;60907;53.268;8.764;2023-02-08T01:19:22;21.75;;;9.40;;
72791;SDS011;60907;53.268;8.764;2023-02-08T01:21:47;23.40;;;9.90;;
72791;SDS011;60907;53.268;8.764;2023-02-08T01:24:15;26.45;;;10.05;;
72791;SDS011;60907;53.268;8.764;2023-02-08T01:26:41;24.63;;;9.77;;
72791;SDS011;60907;53.268;8.764;2023-02-08T01:29:07;22.05;;;10.02;;
72791;SDS011;60907;53.268;8.764;2023-02-08T01:31:33;26.83;;;11.45;;
72791;SDS011;60907;53.268;8.764;2023-02-08T01:34:00;19.23;;;9.07;;
72791;SDS011;60907;53.268;8.764;2023-02-08T01:36:27;16.42;;;8.80;;
72791;SDS011;60907;53.268;8.764;2023-02-08T01:38:53;22.30;;;8.85;;
72791;SDS011;60907;53.268;8.764;2023-02-08T01:41:20;18.48;;;8.95;;
72791;SDS011;60907;53.268;8.764;2023-02-08T01:49:09;20.77;;;8.80;;
72791;SDS011;60907;53.268;8.764;2023-02-08T01:51:38;22.33;;;9.77;;
72791;SDS011;60907;53.268;8.764;2023-02-08T01:54:07;24.42;;;9.95;;
72791;SDS011;60907;53.268;8.764;2023-02-08T01:56:35;15.88;;;7.80;;
72791;SDS011;60907;53.268;8.764;2023-02-08T01:59:03;20.58;;;8.43;;
72791;SDS011;60907;53.268;8.764;2023-02-08T02:01:33;19.15;;;8.70;;
72791;SDS011;60907;53.268;8.764;2023-02-08T02:03:59;21.50;;;9.48;;
72791;SDS011;60907;53.268;8.764;2023-02-08T02:06:27;20.90;;;9.10;;
72791;SDS011;60907;53.268;8.764;2023-02-08T02:08:59;25.75;;;8.93;;
72791;SDS011;60907;53.268;8.764;2023-02-08T02:11:25;19.88;;;8.63;;
72791;SDS011;60907;53.268;8.764;2023-02-08T02:13:52;21.08;;;8.50;;
72791;SDS011;60907;53.268;8.764;2023-02-08T02:16:18;19.50;;;8.63;;
72791;SDS011;60907;53.268;8.764;2023-02-08T02:18:44;18.98;;;8.88;;
72791;SDS011;60907;53.268;8.764;2023-02-08T02:31:58;21.35;;;8.88;;
72791;SDS011;60907;53.268;8.764;2023-02-08T02:37:32;21.73;;;9.40;;
72791;SDS011;60907;53.268;8.764;2023-02-08T02:43:07;22.45;;;9.15;;
72791;SDS011;60907;53.268;8.764;2023-02-08T02:49:03;18.65;;;8.15;;
72791;SDS011;60907;53.268;8.764;2023-02-08T02:57:09;18.15;;;7.18;;
72791;SDS011;60907;53.268;8.764;2023-02-08T02:59:37;20.45;;;7.30;;
72791;SDS011;60907;53.268;8.764;2023-02-08T03:02:03;20.35;;;8.30;;
72791;SDS011;60907;53.268;8.764;2023-02-08T03:15:39;17.67;;;7.78;;
72791;SDS011;60907;53.268;8.764;2023-02-08T03:20:49;18.73;;;8.55;;
72791;SDS011;60907;53.268;8.764;2023-02-08T03:25:55;23.35;;;9.90;;
72791;SDS011;60907;53.268;8.764;2023-02-08T03:28:24;19.40;;;8.45;;
72791;SDS011;60907;53.268;8.764;2023-02-08T03:33:33;18.17;;;8.40;;
72791;SDS011;60907;53.268;8.764;2023-02-08T03:38:34;18.95;;;8.48;;
72791;SDS011;60907;53.268;8.764;2023-02-08T03:41:03;18.90;;;8.00;;
72791;SDS011;60907;53.268;8.764;2023-02-08T03:46:19;21.65;;;8.63;;
72791;SDS011;60907;53.268;8.764;2023-02-08T03:48:46;19.88;;;8.52;;
72791;SDS011;60907;53.268;8.764;2023-02-08T03:51:15;17.55;;;7.90;;
72791;SDS011;60907;53.268;8.764;2023-02-08T03:53:41;21.67;;;8.43;;
72791;SDS011;60907;53.268;8.764;2023-02-08T03:56:16;24.25;;;9.15;;
72791;SDS011;60907;53.268;8.764;2023-02-08T03:58:53;24.92;;;9.27;;
72791;SDS011;60907;53.268;8.764;2023-02-08T04:01:26;22.15;;;8.77;;
72791;SDS011;60907;53.268;8.764;2023-02-08T04:03:54;19.73;;;9.35;;
72791;SDS011;60907;53.268;8.764;2023-02-08T04:06:21;19.65;;;10.27;;
72791;SDS011;60907;53.268;8.764;2023-02-08T04:08:47;20.73;;;8.38;;
72791;SDS011;60907;53.268;8.764;2023-02-08T04:11:14;20.40;;;8.73;;
72791;SDS011;60907;53.268;8.764;2023-02-08T04:13:40;23.55;;;10.27;;
72791;SDS011;60907;53.268;8.764;2023-02-08T04:16:05;22.55;;;11.13;;
72791;SDS011;60907;53.268;8.764;2023-02-08T04:18:31;30.85;;;10.35;;
72791;SDS011;60907;53.268;8.764;2023-02-08T04:20:56;20.30;;;9.23;;
72791;SDS011;60907;53.268;8.764;2023-02-08T04:23:22;21.70;;;10.20;;
72791;SDS011;60907;53.268;8.764;2023-02-08T04:25:47;21.38;;;8.43;;
72791;SDS011;60907;53.268;8.764;2023-02-08T04:28:13;20.15;;;8.68;;
72791;SDS011;60907;53.268;8.764;2023-02-08T04:30:38;20.55;;;10.32;;
72791;SDS011;60907;53.268;8.764;2023-02-08T04:33:04;21.27;;;9.63;;
72791;SDS011;60907;53.268;8.764;2023-02-08T04:35:29;21.15;;;10.18;;
72791;SDS011;60907;53.268;8.764;2023-02-08T04:37:54;18.98;;;8.75;;
72791;SDS011;60907;53.268;8.764;2023-02-08T04:40:20;29.23;;;10.80;;
72791;SDS011;60907;53.268;8.764;2023-02-08T04:42:45;19.10;;;9.50;;
72791;SDS011;60907;53.268;8.764;2023-02-08T04:45:11;20.15;;;9.75;;
72791;SDS011;60907;53.268;8.764;2023-02-08T04:47:36;24.83;;;10.50;;
72791;SDS011;60907;53.268;8.764;2023-02-08T04:50:02;21.90;;;9.25;;
72791;SDS011;60907;53.268;8.764;2023-02-08T04:52:28;21.75;;;8.85;;
72791;SDS011;60907;53.268;8.764;2023-02-08T04:54:53;22.20;;;9.63;;
72791;SDS011;60907;53.268;8.764;2023-02-08T04:57:19;17.67;;;7.93;;
72791;SDS011;60907;53.268;8.764;2023-02-08T04:59:44;21.73;;;8.68;;
72791;SDS011;60907;53.268;8.764;2023-02-08T05:02:10;24.23;;;10.30;;
72791;SDS011;60907;53.268;8.764;2023-02-08T05:04:35;20.45;;;9.52;;
72791;SDS011;60907;53.268;8.764;2023-02-08T05:07:01;25.13;;;9.65;;
72791;SDS011;60907;53.268;8.764;2023-02-08T05:09:26;24.52;;;10.32;;
72791;SDS011;60907;53.268;8.764;2023-02-08T05:11:51;22.20;;;10.85;;
72791;SDS011;60907;53.268;8.764;2023-02-08T05:14:17;28.45;;;11.25;;
72791;SDS011;60907;53.268;8.764;2023-02-08T05:16:42;20.25;;;9.15;;
72791;SDS011;60907;53.268;8.764;2023-02-08T05:19:08;21.45;;;9.95;;
72791;SDS011;60907;53.268;8.764;2023-02-08T05:21:35;25.48;;;10.13;;
72791;SDS011;60907;53.268;8.764;2023-02-08T05:24:00;24.85;;;10.63;;
72791;SDS011;60907;53.268;8.764;2023-02-08T05:26:26;24.98;;;9.63;;
72791;SDS011;60907;53.268;8.764;2023-02-08T05:28:51;22.52;;;9.88;;
72791;SDS011;60907;53.268;8.764;2023-02-08T05:31:18;26.48;;;10.57;;
72791;SDS011;60907;53.268;8.764;2023-02-08T05:33:47;22.70;;;9.68;;
72791;SDS011;60907;53.268;8.764;2023-02-08T05:36:13;25.50;;;11.52;;
72791;SDS011;60907;53.268;8.764;2023-02-08T05:38:38;26.92;;;10.35;;
72791;SDS011;60907;53.268;8.764;2023-02-08T05:41:04;24.88;;;9.82;;
72791;SDS011;60907;53.268;8.764;2023-02-08T05:43:29;23.45;;;10.27;;
72791;SDS011;60907;53.268;8.764;2023-02-08T05:45:55;25.25;;;10.30;;
72791;SDS011;60907;53.268;8.764;2023-02-08T05:48:21;24.58;;;10.63;;
72791;SDS011;60907;53.268;8.764;2023-02-08T05:50:49;26.00;;;11.02;;
72791;SDS011;60907;53.268;8.764;2023-02-08T05:53:15;24.25;;;10.20;;
72791;SDS011;60907;53.268;8.764;2023-02-08T05:55:42;21.20;;;9.48;;
72791;SDS011;60907;53.268;8.764;2023-02-08T05:58:09;28.15;;;10.00;;
72791;SDS011;60907;53.268;8.764;2023-02-08T06:00:34;26.02;;;11.73;;
72791;SDS011;60907;53.268;8.764;2023-02-08T06:03:00;24.30;;;10.63;;
72791;SDS011;60907;53.268;8.764;2023-02-08T06:05:25;28.50;;;11.18;;
72791;SDS011;60907;53.268;8.764;2023-02-08T06:07:51;28.10;;;10.20;;
72791;SDS011;60907;53.268;8.764;2023-02-08T06:10:16;26.40;;;10.27;;
72791;SDS011;60907;53.268;8.764;2023-02-08T06:12:42;23.83;;;10.95;;
72791;SDS011;60907;53.268;8.764;2023-02-08T06:15:07;23.38;;;10.40;;
72791;SDS011;60907;53.268;8.764;2023-02-08T06:17:33;23.60;;;9.75;;
72791;SDS011;60907;53.268;8.764;2023-02-08T06:19:58;26.83;;;10.13;;
72791;SDS011;60907;53.268;8.764;2023-02-08T06:22:24;24.27;;;10.60;;
72791;SDS011;60907;53.268;8.764;2023-02-08T06:24:49;24.23;;;9.70;;
72791;SDS011;60907;53.268;8.764;2023-02-08T06:27:15;23.50;;;10.73;;
72791;SDS011;60907;53.268;8.764;2023-02-08T06:29:40;29.02;;;10.90;;
72791;SDS011;60907;53.268;8.764;2023-02-08T06:32:05;27.58;;;10.63;;
72791;SDS011;60907;53.268;8.764;2023-02-08T06:34:31;26.00;;;10.80;;
72791;SDS011;60907;53.268;8.764;2023-02-08T06:36:56;25.60;;;10.65;;
72791;SDS011;60907;53.268;8.764;2023-02-08T06:39:24;28.85;;;11.38;;
72791;SDS011;60907;53.268;8.764;2023-02-08T06:41:49;27.17;;;10.95;;
72791;SDS011;60907;53.268;8.764;2023-02-08T06:44:15;23.25;;;10.32;;
72791;SDS011;60907;53.268;8.764;2023-02-08T06:46:40;23.27;;;10.30;;
72791;SDS011;60907;53.268;8.764;2023-02-08T06:49:06;29.42;;;11.90;;
72791;SDS011;60907;53.268;8.764;2023-02-08T06:51:31;31.55;;;11.25;;
72791;SDS011;60907;53.268;8.764;2023-02-08T06:53:57;31.10;;;11.18;;
72791;SDS011;60907;53.268;8.764;2023-02-08T06:56:22;28.00;;;10.98;;
72791;SDS011;60907;53.268;8.764;2023-02-08T06:58:47;22.27;;;10.38;;
72791;SDS011;60907;53.268;8.764;2023-02-08T07:01:13;24.75;;;10.45;;
72791;SDS011;60907;53.268;8.764;2023-02-08T07:03:39;29.05;;;10.70;;
72791;SDS011;60907;53.268;8.764;2023-02-08T07:06:04;26.33;;;11.00;;
72791;SDS011;60907;53.268;8.764;2023-02-08T07:08:31;27.73;;;10.35;;
72791;SDS011;60907;53.268;8.764;2023-02-08T07:10:57;23.88;;;9.80;;
72791;SDS011;60907;53.268;8.764;2023-02-08T07:13:23;24.70;;;10.90;;
72791;SDS011;60907;53.268;8.764;2023-02-08T07:15:48;24.10;;;9.63;;
72791;SDS011;60907;53.268;8.764;2023-02-08T07:18:14;24.52;;;9.98;;
72791;SDS011;60907;53.268;8.764;2023-02-08T07:20:39;27.85;;;10.95;;
72791;SDS011;60907;53.268;8.764;2023-02-08T07:23:04;30.92;;;10.45;;
72791;SDS011;60907;53.268;8.764;2023-02-08T07:25:30;27.65;;;11.52;;
72791;SDS011;60907;53.268;8.764;2023-02-08T07:27:55;29.20;;;10.90;;
72791;SDS011;60907;53.268;8.764;2023-02-08T07:30:21;24.25;;;11.02;;
72791;SDS011;60907;53.268;8.764;2023-02-08T07:32:46;23.45;;;9.80;;
72791;SDS011;60907;53.268;8.764;2023-02-08T07:35:12;26.27;;;10.68;;
72791;SDS011;60907;53.268;8.764;2023-02-08T07:37:37;22.63;;;9.93;;
72791;SDS011;60907;53.268;8.764;2023-02-08T07:40:03;29.95;;;11.60;;
72791;SDS011;60907;53.268;8.764;2023-02-08T07:42:28;27.33;;;10.93;;
72791;SDS011;60907;53.268;8.764;2023-02-08T07:44:54;37.00;;;13.48;;
72791;SDS011;60907;53.268;8.764;2023-02-08T07:47:19;38.03;;;15.63;;
72791;SDS011;60907;53.268;8.764;2023-02-08T07:49:45;30.10;;;11.48;;
72791;SDS011;60907;53.268;8.764;2023-02-08T07:52:10;33.92;;;13.20;;
72791;SDS011;60907;53.268;8.764;2023-02-08T07:54:35;30.88;;;11.82;;
72791;SDS011;60907;53.268;8.764;2023-02-08T07:57:01;29.35;;;12.38;;
72791;SDS011;60907;53.268;8.764;2023-02-08T07:59:26;28.85;;;10.55;;
72791;SDS011;60907;53.268;8.764;2023-02-08T08:01:52;31.73;;;11.35;;
72791;SDS011;60907;53.268;8.764;2023-02-08T08:04:17;31.63;;;12.50;;
72791;SDS011;60907;53.268;8.764;2023-02-08T08:06:43;27.98;;;11.13;;
72791;SDS011;60907;53.268;8.764;2023-02-08T08:09:10;27.58;;;10.55;;
72791;SDS011;60907;53.268;8.764;2023-02-08T08:11:36;33.63;;;13.52;;
72791;SDS011;60907;53.268;8.764;2023-02-08T08:14:01;33.53;;;12.85;;
72791;SDS011;60907;53.268;8.764;2023-02-08T08:16:27;30.33;;;12.75;;
72791;SDS011;60907;53.268;8.764;2023-02-08T08:18:52;32.03;;;13.13;;
72791;SDS011;60907;53.268;8.764;2023-02-08T08:21:17;34.28;;;13.38;;
72791;SDS011;60907;53.268;8.764;2023-02-08T08:23:43;28.10;;;11.75;;
72791;SDS011;60907;53.268;8.764;2023-02-08T08:26:10;32.67;;;11.90;;
72791;SDS011;60907;53.268;8.764;2023-02-08T08:28:38;39.30;;;13.80;;
72791;SDS011;60907;53.268;8.764;2023-02-08T08:31:08;33.47;;;12.40;;
72791;SDS011;60907;53.268;8.764;2023-02-08T08:33:37;28.88;;;12.23;;
72791;SDS011;60907;53.268;8.764;2023-02-08T08:36:02;32.65;;;13.05;;
72791;SDS011;60907;53.268;8.764;2023-02-08T08:38:28;33.42;;;12.93;;
72791;SDS011;60907;53.268;8.764;2023-02-08T08:40:53;27.27;;;12.27;;
72791;SDS011;60907;53.268;8.764;2023-02-08T08:43:19;32.28;;;13.23;;
72791;SDS011;60907;53.268;8.764;2023-02-08T08:45:44;28.70;;;11.70;;
72791;SDS011;60907;53.268;8.764;2023-02-08T08:48:10;37.58;;;14.45;;
72791;SDS011;60907;53.268;8.764;2023-02-08T08:50:35;33.22;;;11.93;;
72791;SDS011;60907;53.268;8.764;2023-02-08T08:53:01;33.80;;;12.93;;
72791;SDS011;60907;53.268;8.764;2023-02-08T08:55:26;32.90;;;12.77;;
72791;SDS011;60907;53.268;8.764;2023-02-08T08:57:52;35.92;;;14.25;;
72791;SDS011;60907;53.268;8.764;2023-02-08T09:00:18;37.70;;;13.27;;
72791;SDS011;60907;53.268;8.764;2023-02-08T09:02:43;39.53;;;12.38;;
72791;SDS011;60907;53.268;8.764;2023-02-08T09:05:09;30.63;;;14.18;;
72791;SDS011;60907;53.268;8.764;2023-02-08T09:07:34;29.17;;;13.38;;
72791;SDS011;60907;53.268;8.764;2023-02-08T09:10:00;31.20;;;12.80;;
72791;SDS011;60907;53.268;8.764;2023-02-08T09:12:26;34.80;;;12.77;;
72791;SDS011;60907;53.268;8.764;2023-02-08T09:14:51;34.42;;;13.23;;
72791;SDS011;60907;53.268;8.764;2023-02-08T09:17:17;30.85;;;13.35;;
72791;SDS011;60907;53.268;8.764;2023-02-08T09:19:42;28.10;;;12.45;;
72791;SDS011;60907;53.268;8.764;2023-02-08T09:22:08;32.20;;;12.88;;
72791;SDS011;60907;53.268;8.764;2023-02-08T09:24:33;32.13;;;13.88;;
72791;SDS011;60907;53.268;8.764;2023-02-08T09:26:59;30.60;;;12.13;;
72791;SDS011;60907;53.268;8.764;2023-02-08T09:29:25;34.92;;;14.07;;
72791;SDS011;60907;53.268;8.764;2023-02-08T09:31:53;32.25;;;13.40;;
72791;SDS011;60907;53.268;8.764;2023-02-08T09:34:19;33.80;;;14.80;;
72791;SDS011;60907;53.268;8.764;2023-02-08T09:36:44;33.55;;;13.27;;
72791;SDS011;60907;53.268;8.764;2023-02-08T09:39:11;31.23;;;12.50;;
72791;SDS011;60907;53.268;8.764;2023-02-08T09:47:21;28.35;;;13.18;;
72791;SDS011;60907;53.268;8.764;2023-02-08T09:52:26;35.20;;;14.15;;
72791;SDS011;60907;53.268;8.764;2023-02-08T09:55:07;27.92;;;12.07;;
72791;SDS011;60907;53.268;8.764;2023-02-08T09:57:39;28.65;;;13.18;;
72791;SDS011;60907;53.268;8.764;2023-02-08T10:00:08;30.88;;;12.52;;
72791;SDS011;60907;53.268;8.764;2023-02-08T10:02:37;29.88;;;12.75;;
72791;SDS011;60907;53.268;8.764;2023-02-08T10:05:11;27.48;;;11.88;;
72791;SDS011;60907;53.268;8.764;2023-02-08T10:07:38;32.35;;;12.57;;
72791;SDS011;60907;53.268;8.764;2023-02-08T10:10:06;28.55;;;11.63;;
72791;SDS011;60907;53.268;8.764;2023-02-08T10:12:45;25.98;;;12.48;;
72791;SDS011;60907;53.268;8.764;2023-02-08T10:15:40;26.23;;;11.98;;
72791;SDS011;60907;53.268;8.764;2023-02-08T10:26:20;24.25;;;10.35;;
72791;SDS011;60907;53.268;8.764;2023-02-08T10:34:02;24.15;;;10.13;;
72791;SDS011;60907;53.268;8.764;2023-02-08T10:36:33;26.75;;;11.15;;
72791;SDS011;60907;53.268;8.764;2023-02-08T10:39:01;23.10;;;10.10;;
72791;SDS011;60907;53.268;8.764;2023-02-08T10:41:30;24.10;;;10.70;;
72791;SDS011;60907;53.268;8.764;2023-02-08T10:46:31;25.10;;;10.30;;
72791;SDS011;60907;53.268;8.764;2023-02-08T10:51:29;23.92;;;10.10;;
72791;SDS011;60907;53.268;8.764;2023-02-08T10:53:55;24.10;;;10.20;;
72791;SDS011;60907;53.268;8.764;2023-02-08T10:58:59;25.13;;;10.27;;
72791;SDS011;60907;53.268;8.764;2023-02-08T11:01:26;24.70;;;10.02;;
72791;SDS011;60907;53.268;8.764;2023-02-08T11:03:59;24.02;;;9.23;;
72791;SDS011;60907;53.268;8.764;2023-02-08T11:06:28;21.15;;;9.45;;
72791;SDS011;60907;53.268;8.764;2023-02-08T11:08:54;26.35;;;8.93;;
72791;SDS011;60907;53.268;8.764;2023-02-08T11:11:21;23.65;;;9.48;;
72791;SDS011;60907;53.268;8.764;2023-02-08T11:13:47;19.45;;;8.27;;
72791;SDS011;60907;53.268;8.764;2023-02-08T11:16:34;21.42;;;9.00;;
72791;SDS011;60907;53.268;8.764;2023-02-08T11:19:01;20.95;;;8.75;;
72791;SDS011;60907;53.268;8.764;2023-02-08T11:24:22;21.20;;;8.57;;
72791;SDS011;60907;53.268;8.764;2023-02-08T11:27:12;19.40;;;7.45;;
72791;SDS011;60907;53.268;8.764;2023-02-08T11:29:43;18.88;;;7.65;;
72791;SDS011;60907;53.268;8.764;2023-02-08T11:32:19;19.80;;;7.25;;
72791;SDS011;60907;53.268;8.764;2023-02-08T11:34:44;22.48;;;8.30;;
72791;SDS011;60907;53.268;8.764;2023-02-08T11:37:28;21.50;;;8.68;;
72791;SDS011;60907;53.268;8.764;2023-02-08T11:39:54;18.95;;;7.15;;
72791;SDS011;60907;53.268;8.764;2023-02-08T11:44:49;19.33;;;7.78;;
72791;SDS011;60907;53.268;8.764;2023-02-08T11:47:16;16.08;;;6.97;;
72791;SDS011;60907;53.268;8.764;2023-02-08T11:49:43;18.23;;;7.10;;
72791;SDS011;60907;53.268;8.764;2023-02-08T11:54:51;16.42;;;7.22;;
72791;SDS011;60907;53.268;8.764;2023-02-08T11:57:19;18.48;;;8.05;;
72791;SDS011;60907;53.268;8.764;2023-02-08T11:59:47;18.85;;;7.75;;
72791;SDS011;60907;53.268;8.764;2023-02-08T12:04:48;15.93;;;6.82;;
72791;SDS011;60907;53.268;8.764;2023-02-08T12:20:39;13.93;;;4.95;;
72791;SDS011;60907;53.268;8.764;2023-02-08T12:34:18;13.82;;;5.15;;
72791;SDS011;60907;53.268;8.764;2023-02-08T12:37:06;15.32;;;5.63;;
72791;SDS011;60907;53.268;8.764;2023-02-08T12:51:25;14.40;;;5.88;;
72791;SDS011;60907;53.268;8.764;2023-02-08T12:54:49;13.20;;;5.90;;
72791;SDS011;60907;53.268;8.764;2023-02-08T12:56:59;13.75;;;5.45;;
72791;SDS011;60907;53.268;8.764;2023-02-08T12:59:28;11.45;;;4.65;;
72791;SDS011;60907;53.268;8.764;2023-02-08T13:01:56;11.95;;;5.20;;
72791;SDS011;60907;53.268;8.764;2023-02-08T13:04:31;11.63;;;5.63;;
72791;SDS011;60907;53.268;8.764;2023-02-08T13:07:03;13.60;;;5.72;;
72791;SDS011;60907;53.268;8.764;2023-02-08T13:09:38;16.35;;;6.25;;
72791;SDS011;60907;53.268;8.764;2023-02-08T13:12:10;13.20;;;5.15;;
72791;SDS011;60907;53.268;8.764;2023-02-08T13:17:26;13.95;;;5.40;;
72791;SDS011;60907;53.268;8.764;2023-02-08T13:22:47;15.85;;;7.00;;
72791;SDS011;60907;53.268;8.764;2023-02-08T13:25:15;21.65;;;7.28;;
72791;SDS011;60907;53.268;8.764;2023-02-08T13:27:46;17.30;;;6.88;;
72791;SDS011;60907;53.268;8.764;2023-02-08T13:30:16;18.98;;;6.78;;
72791;SDS011;60907;53.268;8.764;2023-02-08T13:32:43;19.52;;;7.05;;
72791;SDS011;60907;53.268;8.764;2023-02-08T13:35:14;19.25;;;7.47;;
72791;SDS011;60907;53.268;8.764;2023-02-08T13:37:41;17.33;;;7.13;;
72791;SDS011;60907;53.268;8.764;2023-02-08T13:40:21;17.17;;;7.32;;
72791;SDS011;60907;53.268;8.764;2023-02-08T13:45:32;18.80;;;7.32;;
72791;SDS011;60907;53.268;8.764;2023-02-08T13:48:02;15.82;;;7.22;;
72791;SDS011;60907;53.268;8.764;2023-02-08T13:53:16;15.68;;;7.03;;
72791;SDS011;60907;53.268;8.764;2023-02-08T14:01:01;15.32;;;7.03;;
72791;SDS011;60907;53.268;8.764;2023-02-08T14:03:37;14.63;;;6.88;;
72791;SDS011;60907;53.268;8.764;2023-02-08T14:06:06;18.48;;;7.32;;
72791;SDS011;60907;53.268;8.764;2023-02-08T14:14:06;17.80;;;6.38;;
72791;SDS011;60907;53.268;8.764;2023-02-08T14:16:40;15.70;;;6.93;;
72791;SDS011;60907;53.268;8.764;2023-02-08T14:21:43;15.30;;;6.22;;
72791;SDS011;60907;53.268;8.764;2023-02-08T14:24:21;12.77;;;7.32;;
72791;SDS011;60907;53.268;8.764;2023-02-08T14:26:50;12.77;;;5.50;;
72791;SDS011;60907;53.268;8.764;2023-02-08T14:29:19;13.48;;;6.90;;
72791;SDS011;60907;53.268;8.764;2023-02-08T14:31:47;15.43;;;6.03;;
72791;SDS011;60907;53.268;8.764;2023-02-08T14:34:21;17.55;;;6.72;;
72791;SDS011;60907;53.268;8.764;2023-02-08T14:36:58;15.85;;;6.38;;
72791;SDS011;60907;53.268;8.764;2023-02-08T14:39:30;15.25;;;6.88;;
72791;SDS011;60907;53.268;8.764;2023-02-08T14:42:04;13.55;;;6.07;;
72791;SDS011;60907;53.268;8.764;2023-02-08T14:50:04;12.70;;;6.30;;
72791;SDS011;60907;53.268;8.764;2023-02-08T14:52:38;22.75;;;11.13;;
72791;SDS011;60907;53.268;8.764;2023-02-08T14:55:07;19.33;;;8.82;;
72791;SDS011;60907;53.268;8.764;2023-02-08T15:00:05;18.07;;;8.23;;
72791;SDS011;60907;53.268;8.764;2023-02-08T15:02:32;16.65;;;7.25;;
72791;SDS011;60907;53.268;8.764;2023-02-08T15:04:58;15.32;;;6.95;;
72791;SDS011;60907;53.268;8.764;2023-02-08T15:07:30;13.07;;;6.22;;
72791;SDS011;60907;53.268;8.764;2023-02-08T15:10:09;13.55;;;6.22;;
72791;SDS011;60907;53.268;8.764;2023-02-08T15:12:37;16.45;;;6.85;;
72791;SDS011;60907;53.268;8.764;2023-02-08T15:15:05;16.83;;;6.60;;
72791;SDS011;60907;53.268;8.764;2023-02-08T15:17:32;14.10;;;6.75;;
72791;SDS011;60907;53.268;8.764;2023-02-08T15:19:59;19.02;;;8.23;;
72791;SDS011;60907;53.268;8.764;2023-02-08T15:22:31;15.77;;;7.72;;
72791;SDS011;60907;53.268;8.764;2023-02-08T15:25:00;18.40;;;9.07;;
72791;SDS011;60907;53.268;8.764;2023-02-08T15:27:44;22.90;;;9.07;;
72791;SDS011;60907;53.268;8.764;2023-02-08T15:33:00;18.13;;;8.10;;
72791;SDS011;60907;53.268;8.764;2023-02-08T15:35:26;17.73;;;8.23;;
72791;SDS011;60907;53.268;8.764;2023-02-08T15:37:53;19.17;;;8.32;;
72791;SDS011;60907;53.268;8.764;2023-02-08T15:42:52;18.00;;;8.15;;
72791;SDS011;60907;53.268;8.764;2023-02-08T15:45:22;20.80;;;8.07;;
72791;SDS011;60907;53.268;8.764;2023-02-08T15:47:49;19.23;;;8.88;;
72791;SDS011;60907;53.268;8.764;2023-02-08T15:50:16;24.27;;;8.50;;
72791;SDS011;60907;53.268;8.764;2023-02-08T15:52:43;21.08;;;9.30;;
72791;SDS011;60907;53.268;8.764;2023-02-08T15:55:11;18.02;;;7.88;;
72791;SDS011;60907;53.268;8.764;2023-02-08T15:57:42;20.05;;;7.53;;
72791;SDS011;60907;53.268;8.764;2023-02-08T16:00:17;21.30;;;8.13;;
72791;SDS011;60907;53.268;8.764;2023-02-08T16:02:48;22.15;;;9.77;;
72791;SDS011;60907;53.268;8.764;2023-02-08T16:05:35;21.42;;;9.82;;
72791;SDS011;60907;53.268;8.764;2023-02-08T16:08:02;19.83;;;9.65;;
72791;SDS011;60907;53.268;8.764;2023-02-08T16:10:30;22.20;;;10.80;;
72791;SDS011;60907;53.268;8.764;2023-02-08T16:13:02;22.70;;;10.43;;
72791;SDS011;60907;53.268;8.764;2023-02-08T16:18:28;25.40;;;11.10;;
72791;SDS011;60907;53.268;8.764;2023-02-08T16:21:06;24.45;;;9.90;;
72791;SDS011;60907;53.268;8.764;2023-02-08T16:23:47;24.42;;;10.43;;
72791;SDS011;60907;53.268;8.764;2023-02-08T16:26:27;22.10;;;9.65;;
72791;SDS011;60907;53.268;8.764;2023-02-08T16:29:05;23.58;;;9.95;;
72791;SDS011;60907;53.268;8.764;2023-02-08T16:31:40;20.42;;;8.23;;
72791;SDS011;60907;53.268;8.764;2023-02-08T16:34:07;23.65;;;9.40;;
72791;SDS011;60907;53.268;8.764;2023-02-08T16:36:39;23.42;;;9.00;;
72791;SDS011;60907;53.268;8.764;2023-02-08T16:44:24;26.05;;;10.38;;
72791;SDS011;60907;53.268;8.764;2023-02-08T16:46:50;26.58;;;10.20;;
72791;SDS011;60907;53.268;8.764;2023-02-08T16:49:16;22.17;;;9.38;;
72791;SDS011;60907;53.268;8.764;2023-02-08T16:51:41;20.50;;;8.75;;
72791;SDS011;60907;53.268;8.764;2023-02-08T16:54:10;26.45;;;9.10;;
72791;SDS011;60907;53.268;8.764;2023-02-08T16:56:38;23.00;;;8.82;;
72791;SDS011;60907;53.268;8.764;2023-02-08T16:59:04;21.90;;;9.02;;
72791;SDS011;60907;53.268;8.764;2023-02-08T17:01:29;23.95;;;8.50;;
72791;SDS011;60907;53.268;8.764;2023-02-08T17:03:55;20.02;;;8.68;;
72791;SDS011;60907;53.268;8.764;2023-02-08T17:06:28;20.73;;;8.05;;
72791;SDS011;60907;53.268;8.764;2023-02-08T17:08:56;20.85;;;8.27;;
72791;SDS011;60907;53.268;8.764;2023-02-08T17:11:22;18.17;;;8.10;;
72791;SDS011;60907;53.268;8.764;2023-02-08T17:13:48;20.92;;;8.02;;
72791;SDS011;60907;53.268;8.764;2023-02-08T17:16:18;20.02;;;8.32;;
72791;SDS011;60907;53.268;8.764;2023-02-08T17:18:46;20.88;;;8.70;;
72791;SDS011;60907;53.268;8.764;2023-02-08T17:21:12;22.67;;;8.77;;
72791;SDS011;60907;53.268;8.764;2023-02-08T17:23:37;19.65;;;7.70;;
72791;SDS011;60907;53.268;8.764;2023-02-08T17:26:13;18.98;;;7.85;;
72791;SDS011;60907;53.268;8.764;2023-02-08T17:28:41;13.70;;;7.50;;
72791;SDS011;60907;53.268;8.764;2023-02-08T17:31:08;16.27;;;6.43;;